Time;durP1;ratioP1;P1;durP2;ratioP2;P2;SDS_P1;SDS_P2;PMS_P1;PMS_P2;Temp;Humidity;BMP_temperature;BMP_pressure;BME280_temperature;BME280_humidity;BME280_pressure;Samples;Min_cycle;Max_cycle;Signal;HPM_P1;HPM_P2
2021/03/19 00:00:30;;;;;;;25.80;20.07;;;4.50;99.90;;;;;;5112306;28;20156;-65
2021/03/19 00:02:55;;;;;;;23.57;20.77;;;4.50;99.90;;;;;;5113397;27;20672;-65
2021/03/19 00:05:23;;;;;;;24.93;19.17;;;4.50;99.90;;;;;;5113170;28;20243;-65
2021/03/19 00:07:52;;;;;;;22.00;18.43;;;4.50;99.90;;;;;;5113297;28;20258;-65
2021/03/19 00:10:21;;;;;;;20.90;18.37;;;4.40;99.90;;;;;;5113293;28;20405;-65
2021/03/19 00:12:47;;;;;;;20.77;18.57;;;4.40;99.90;;;;;;5113244;28;20435;-65
2021/03/19 00:15:13;;;;;;;21.90;17.57;;;4.40;99.90;;;;;;5113059;28;20432;-65
2021/03/19 00:17:40;;;;;;;19.50;17.40;;;4.40;99.90;;;;;;5111358;28;20658;-65
2021/03/19 00:20:08;;;;;;;20.73;18.50;;;4.40;99.90;;;;;;5113230;28;20454;-65
2021/03/19 00:22:34;;;;;;;24.90;19.00;;;4.40;99.90;;;;;;5113628;28;20487;-65
2021/03/19 00:25:01;;;;;;;24.03;21.53;;;4.40;99.90;;;;;;5117319;28;20385;-66
2021/03/19 00:27:26;;;;;;;22.80;20.50;;;4.40;99.90;;;;;;5107135;28;20410;-65
2021/03/19 00:29:52;;;;;;;23.30;20.90;;;4.30;99.90;;;;;;5096695;28;20862;-65
2021/03/19 00:32:18;;;;;;;24.17;19.87;;;4.30;99.90;;;;;;5096622;28;20158;-66
2021/03/19 00:34:43;;;;;;;25.63;19.43;;;4.30;99.90;;;;;;5097410;28;20195;-65
2021/03/19 00:37:09;;;;;;;22.67;20.30;;;4.20;99.90;;;;;;5096649;28;20170;-65
2021/03/19 00:39:34;;;;;;;22.33;19.93;;;4.20;99.90;;;;;;5096671;28;20337;-65
2021/03/19 00:42:01;;;;;;;24.80;22.20;;;4.20;99.90;;;;;;5096454;28;20206;-65
2021/03/19 00:44:27;;;;;;;24.77;22.40;;;4.10;99.90;;;;;;5096489;28;20499;-66
2021/03/19 00:46:53;;;;;;;22.97;20.57;;;4.10;99.90;;;;;;5096392;28;20499;-65
2021/03/19 00:49:18;;;;;;;23.90;21.50;;;4.10;99.90;;;;;;5096326;28;20385;-65
2021/03/19 00:51:44;;;;;;;23.83;21.07;;;4.00;99.90;;;;;;5095580;28;20186;-65
2021/03/19 00:54:11;;;;;;;27.47;21.63;;;4.00;99.90;;;;;;5096473;28;20254;-65
2021/03/19 00:56:36;;;;;;;24.80;21.73;;;3.90;99.90;;;;;;5096248;28;20163;-65
2021/03/19 00:59:06;;;;;;;24.93;22.43;;;3.80;99.90;;;;;;5094921;28;20446;-66
2021/03/19 01:01:32;;;;;;;23.83;21.20;;;3.80;99.90;;;;;;5096070;28;20199;-65
2021/03/19 01:03:57;;;;;;;25.33;21.97;;;3.70;99.90;;;;;;5096047;28;20804;-66
2021/03/19 01:06:23;;;;;;;24.30;21.40;;;3.70;99.90;;;;;;5095975;28;20151;-66
2021/03/19 01:08:48;;;;;;;24.40;21.27;;;3.60;99.90;;;;;;5096680;28;20523;-66
2021/03/19 01:11:14;;;;;;;25.03;22.33;;;3.60;99.90;;;;;;5095949;28;20631;-65
2021/03/19 01:13:39;;;;;;;22.70;20.30;;;3.60;99.90;;;;;;5096046;28;20225;-65
2021/03/19 01:16:05;;;;;;;24.40;21.90;;;3.50;99.90;;;;;;5095752;28;20178;-65
2021/03/19 01:18:32;;;;;;;26.77;23.87;;;3.60;99.90;;;;;;5095765;28;20237;-65
2021/03/19 01:20:58;;;;;;;31.33;24.13;;;3.60;99.90;;;;;;5095755;28;20436;-65
2021/03/19 01:23:23;;;;;;;26.50;23.33;;;3.70;99.90;;;;;;5096000;28;20400;-65
2021/03/19 01:25:49;;;;;;;25.27;22.40;;;3.70;99.90;;;;;;5095949;28;20530;-65
2021/03/19 01:28:14;;;;;;;28.50;23.67;;;3.80;99.90;;;;;;5112128;28;20189;-65
2021/03/19 01:30:42;;;;;;;26.43;23.63;;;3.80;99.90;;;;;;5116053;28;20158;-66
2021/03/19 01:33:08;;;;;;;28.00;23.83;;;3.90;99.90;;;;;;5114176;28;20163;-66
2021/03/19 01:35:35;;;;;;;27.93;23.33;;;3.90;99.90;;;;;;5115617;27;20431;-65
2021/03/19 01:38:03;;;;;;;28.53;22.57;;;3.90;99.90;;;;;;5115996;27;20154;-65
2021/03/19 01:40:33;;;;;;;25.27;22.60;;;4.00;99.90;;;;;;5116105;28;20395;-65
2021/03/19 01:43:18;;;;;;;25.27;21.53;;;4.00;99.90;;;;;;5114865;28;20761;-65
2021/03/19 01:49:20;;;;;;;25.10;22.50;;;3.90;99.90;;;;;;5110819;27;20505;-65
2021/03/19 01:52:26;;;;;;;24.10;19.67;;;3.90;99.90;;;;;;5109805;28;20400;-65
2021/03/19 01:55:31;;;;;;;24.00;19.90;;;3.90;99.90;;;;;;5109664;28;20869;-65
2021/03/19 01:58:36;;;;;;;22.00;19.60;;;3.80;99.90;;;;;;5109620;28;20390;-65
2021/03/19 02:01:42;;;;;;;23.03;19.53;;;3.80;99.90;;;;;;5095005;28;20409;-65
2021/03/19 02:04:47;;;;;;;21.60;19.00;;;3.70;99.90;;;;;;5089206;28;20442;-65
2021/03/19 02:07:53;;;;;;;22.77;20.37;;;3.60;99.90;;;;;;5088976;28;20445;-65
2021/03/19 02:10:58;;;;;;;27.20;19.63;;;3.50;99.90;;;;;;5089059;28;20394;-65
2021/03/19 02:14:03;;;;;;;23.07;20.57;;;3.50;99.90;;;;;;5088939;28;20385;-65
2021/03/19 02:17:09;;;;;;;23.93;21.37;;;3.40;99.90;;;;;;5089377;28;20397;-65
2021/03/19 02:20:14;;;;;;;26.33;22.80;;;3.30;99.90;;;;;;5088907;28;20464;-65
2021/03/19 02:23:20;;;;;;;27.43;22.90;;;3.30;99.90;;;;;;5088854;28;20393;-65
2021/03/19 02:26:25;;;;;;;26.47;22.90;;;3.30;99.90;;;;;;5092800;28;20414;-65
2021/03/19 02:29:30;;;;;;;25.27;20.77;;;3.40;99.90;;;;;;5108947;28;20407;-65
2021/03/19 02:34:55;;;;;;;28.17;24.50;;;3.40;99.90;;;;;;5121332;27;20521;-66
2021/03/19 02:37:28;;;;;;;26.40;22.33;;;3.40;99.90;;;;;;5109905;28;20453;-66
2021/03/19 02:39:54;;;;;;;27.90;23.30;;;3.40;99.90;;;;;;5110822;28;20381;-66
2021/03/19 02:42:24;;;;;;;26.53;23.60;;;3.50;99.90;;;;;;5110686;28;20740;-66
2021/03/19 02:44:50;;;;;;;26.03;23.20;;;3.50;99.90;;;;;;5110748;28;20475;-66
2021/03/19 02:47:16;;;;;;;28.07;24.30;;;3.50;99.90;;;;;;5110628;28;20848;-66
2021/03/19 02:49:42;;;;;;;28.90;24.80;;;3.60;99.90;;;;;;5110774;28;20165;-66
2021/03/19 02:52:08;;;;;;;31.00;27.07;;;3.60;99.90;;;;;;5110282;28;20412;-66
2021/03/19 02:54:34;;;;;;;30.90;23.30;;;3.60;99.90;;;;;;5110555;28;20246;-66
2021/03/19 02:57:00;;;;;;;30.40;25.83;;;3.70;99.90;;;;;;5110373;28;20428;-66
2021/03/19 02:59:25;;;;;;;29.10;24.60;;;3.70;99.90;;;;;;5110358;28;20630;-66
2021/03/19 03:01:51;;;;;;;30.13;25.17;;;3.70;99.90;;;;;;5110834;28;20190;-66
2021/03/19 03:04:18;;;;;;;31.80;24.43;;;3.70;99.90;;;;;;5110279;28;20648;-66
2021/03/19 03:06:47;;;;;;;29.07;25.17;;;3.70;99.90;;;;;;5110352;28;20944;-66
2021/03/19 03:09:16;;;;;;;33.53;25.27;;;3.70;99.90;;;;;;5110127;28;20423;-66
2021/03/19 03:11:43;;;;;;;28.17;24.47;;;3.70;99.90;;;;;;5108817;28;20445;-66
2021/03/19 03:14:11;;;;;;;29.07;23.90;;;3.80;99.90;;;;;;5109989;28;20448;-66
2021/03/19 03:16:38;;;;;;;27.00;23.37;;;3.80;99.90;;;;;;5110440;28;20449;-66
2021/03/19 03:19:06;;;;;;;30.63;25.67;;;3.80;99.90;;;;;;5110052;28;20409;-66
2021/03/19 03:21:32;;;;;;;31.27;25.37;;;3.80;99.90;;;;;;5109950;28;20481;-66
2021/03/19 03:23:58;;;;;;;28.27;23.83;;;3.80;99.90;;;;;;5109988;28;20873;-66
2021/03/19 03:26:23;;;;;;;34.63;25.80;;;3.80;99.90;;;;;;5110039;28;20415;-66
2021/03/19 03:28:49;;;;;;;32.63;25.77;;;3.80;99.90;;;;;;5109760;28;20483;-66
2021/03/19 03:31:15;;;;;;;30.73;25.77;;;3.80;99.90;;;;;;5109891;28;20159;-66
2021/03/19 03:33:40;;;;;;;32.83;24.67;;;3.80;99.90;;;;;;5109494;28;20205;-66
2021/03/19 03:36:07;;;;;;;29.40;24.70;;;3.80;99.90;;;;;;5109605;28;20159;-66
2021/03/19 03:38:33;;;;;;;28.40;24.63;;;3.80;99.90;;;;;;5109634;28;20155;-66
2021/03/19 03:41:04;;;;;;;32.20;25.90;;;3.80;99.90;;;;;;5109709;28;21266;-66
2021/03/19 03:43:30;;;;;;;30.37;25.27;;;3.80;99.90;;;;;;5110099;28;20754;-66
2021/03/19 03:45:56;;;;;;;27.73;24.73;;;3.80;99.90;;;;;;5095740;28;20485;-66
2021/03/19 03:48:26;;;;;;;29.50;25.57;;;3.80;99.90;;;;;;5096347;28;20397;-66
2021/03/19 03:50:52;;;;;;;32.20;26.87;;;3.80;99.90;;;;;;5095783;28;20413;-66
2021/03/19 03:53:18;;;;;;;36.67;30.43;;;3.80;99.90;;;;;;5094540;28;20432;-66
2021/03/19 03:55:44;;;;;;;38.73;30.67;;;3.80;99.90;;;;;;5095913;28;20393;-66
2021/03/19 03:58:12;;;;;;;38.17;32.23;;;3.80;99.90;;;;;;5095672;28;20402;-66
2021/03/19 04:00:39;;;;;;;38.73;32.17;;;3.80;99.90;;;;;;5095922;28;20320;-66
2021/03/19 04:03:06;;;;;;;44.27;36.40;;;3.80;99.90;;;;;;5095639;28;20492;-66
2021/03/19 04:05:37;;;;;;;43.83;37.10;;;3.80;99.90;;;;;;5095563;28;20400;-66
2021/03/19 04:08:03;;;;;;;49.30;41.37;;;3.80;99.90;;;;;;5095657;28;20394;-66
2021/03/19 04:10:29;;;;;;;48.93;37.07;;;3.70;99.90;;;;;;5095446;28;20400;-66
2021/03/19 04:12:55;;;;;;;55.60;42.00;;;3.70;99.90;;;;;;5095253;28;20436;-66
2021/03/19 04:15:21;;;;;;;53.83;39.27;;;3.70;99.90;;;;;;5095497;28;20163;-66
2021/03/19 04:17:48;;;;;;;51.80;40.97;;;3.60;99.90;;;;;;5093978;28;20405;-66
2021/03/19 04:20:16;;;;;;;52.87;41.20;;;3.60;99.90;;;;;;5095241;28;20385;-66
2021/03/19 04:22:42;;;;;;;45.90;37.40;;;3.60;99.90;;;;;;5095222;28;20381;-65
2021/03/19 04:25:09;;;;;;;45.00;38.37;;;3.60;99.90;;;;;;5094994;28;20482;-66
2021/03/19 04:27:43;;;;;;;48.20;37.40;;;3.60;99.90;;;;;;5095073;28;20242;-65
2021/03/19 04:30:17;;;;;;;44.80;36.47;;;3.60;99.90;;;;;;5094103;28;20404;-65
2021/03/19 04:32:43;;;;;;;44.63;34.10;;;3.60;99.90;;;;;;5094899;28;20459;-65
2021/03/19 04:35:09;;;;;;;42.33;37.63;;;3.50;99.90;;;;;;5094941;28;20416;-66
2021/03/19 04:37:35;;;;;;;39.40;33.77;;;3.50;99.90;;;;;;5094921;28;20179;-65
2021/03/19 04:40:02;;;;;;;42.57;33.10;;;3.50;99.90;;;;;;5094899;28;20421;-65
2021/03/19 04:42:28;;;;;;;36.77;32.17;;;3.40;99.90;;;;;;5094889;28;20535;-65
2021/03/19 04:44:53;;;;;;;41.43;32.60;;;3.40;99.90;;;;;;5094849;28;20476;-65
2021/03/19 04:47:19;;;;;;;37.00;31.90;;;3.30;99.90;;;;;;5094595;28;20199;-65
2021/03/19 04:49:44;;;;;;;32.90;28.53;;;3.30;99.90;;;;;;5094681;28;20204;-65
2021/03/19 04:52:10;;;;;;;34.07;28.93;;;3.30;99.90;;;;;;5094598;28;20204;-65
2021/03/19 04:54:35;;;;;;;31.67;27.73;;;3.30;99.90;;;;;;5095057;28;20257;-65
2021/03/19 04:57:01;;;;;;;33.70;26.70;;;3.30;99.90;;;;;;5093715;28;20155;-65
2021/03/19 04:59:27;;;;;;;31.00;26.57;;;3.30;99.90;;;;;;5094532;28;20630;-65
2021/03/19 05:01:56;;;;;;;32.00;25.23;;;3.20;99.90;;;;;;5094459;28;20151;-65
2021/03/19 05:04:23;;;;;;;31.63;25.97;;;3.20;99.90;;;;;;5094345;28;20617;-65
2021/03/19 05:06:50;;;;;;;28.70;24.80;;;3.20;99.90;;;;;;5094286;28;20428;-66
2021/03/19 05:09:16;;;;;;;28.20;24.13;;;3.20;99.90;;;;;;5094255;28;20472;-66
2021/03/19 05:11:42;;;;;;;32.00;25.47;;;3.20;99.90;;;;;;5094723;28;20493;-66
2021/03/19 05:14:08;;;;;;;30.47;24.40;;;3.10;99.90;;;;;;5094161;28;20440;-66
2021/03/19 05:16:33;;;;;;;28.90;23.77;;;3.00;99.90;;;;;;5094097;28;20204;-66
2021/03/19 05:18:59;;;;;;;28.33;23.60;;;2.90;99.90;;;;;;5094149;28;20147;-65
2021/03/19 05:21:25;;;;;;;37.80;26.63;;;2.90;99.90;;;;;;5094063;28;20237;-65
2021/03/19 05:23:50;;;;;;;32.07;24.53;;;2.90;99.90;;;;;;5093784;28;20209;-65
2021/03/19 05:26:16;;;;;;;30.80;25.43;;;2.90;99.90;;;;;;5094107;28;20167;-65
2021/03/19 05:28:42;;;;;;;32.17;25.07;;;2.90;99.90;;;;;;5093962;28;20154;-65
2021/03/19 05:31:08;;;;;;;38.43;26.13;;;3.00;99.90;;;;;;5093938;28;20404;-65
2021/03/19 05:33:51;;;;;;;33.17;26.50;;;3.00;99.90;;;;;;5093714;28;20206;-66
2021/03/19 05:36:25;;;;;;;36.13;27.53;;;3.00;99.90;;;;;;5092744;28;20630;-65
2021/03/19 05:38:51;;;;;;;36.77;27.00;;;3.00;99.90;;;;;;5093776;28;20393;-66
2021/03/19 05:41:18;;;;;;;37.23;27.40;;;3.00;99.90;;;;;;5093675;28;20424;-65
2021/03/19 05:43:49;;;;;;;37.27;27.70;;;3.00;99.90;;;;;;5093730;28;20407;-65
2021/03/19 05:46:20;;;;;;;35.60;25.87;;;3.00;99.90;;;;;;5093790;28;20469;-66
2021/03/19 05:51:47;;;;;;;29.63;25.33;;;3.00;99.90;;;;;;5131464;27;20518;-65
2021/03/19 05:59:33;;;;;;;30.97;25.17;;;2.90;99.90;;;;;;5112845;27;20577;-66
2021/03/19 06:01:59;;;;;;;32.87;24.93;;;2.90;99.90;;;;;;5110798;28;20441;-66
2021/03/19 06:04:28;;;;;;;35.23;27.47;;;2.90;99.90;;;;;;5110831;28;20387;-66
2021/03/19 06:07:00;;;;;;;30.93;24.90;;;2.90;99.90;;;;;;5110914;28;20380;-66
2021/03/19 06:09:28;;;;;;;31.93;25.40;;;2.90;99.90;;;;;;5110882;28;20395;-66
2021/03/19 06:11:59;;;;;;;33.20;27.20;;;2.90;99.90;;;;;;5110669;28;20387;-66
2021/03/19 06:14:26;;;;;;;35.23;26.00;;;2.90;99.90;;;;;;5110381;28;20498;-66
2021/03/19 06:16:58;;;;;;;35.67;26.67;;;2.90;99.90;;;;;;5110692;28;20434;-66
2021/03/19 06:22:04;;;;;;;30.03;26.00;;;2.90;99.90;;;;;;5131571;27;20512;-66
2021/03/19 06:24:32;;;;;;;32.90;26.20;;;2.90;99.90;;;;;;5131479;27;20431;-66
2021/03/19 06:27:21;;;;;;;28.27;22.60;;;3.00;99.90;;;;;;5131458;27;20746;-66
2021/03/19 06:29:51;;;;;;;26.60;23.10;;;2.90;99.90;;;;;;5130750;28;20511;-66
2021/03/19 06:37:52;;;;;;;26.27;22.87;;;2.90;99.90;;;;;;5131787;27;20511;-65
2021/03/19 06:43:15;;;;;;;27.20;21.50;;;2.90;99.90;;;;;;5131478;27;21100;-65
2021/03/19 06:45:40;;;;;;;23.50;21.00;;;2.90;99.90;;;;;;5131350;27;20886;-65
2021/03/19 06:48:27;;;;;;;25.40;21.40;;;2.90;99.90;;;;;;5131418;27;20380;-65
2021/03/19 06:50:52;;;;;;;27.60;21.53;;;2.90;99.90;;;;;;5111011;28;20607;-65
2021/03/19 06:53:26;;;;;;;23.37;20.47;;;2.90;99.90;;;;;;5110959;28;20387;-65
2021/03/19 06:55:56;;;;;;;23.00;20.50;;;2.90;99.90;;;;;;5109514;28;20628;-65
2021/03/19 06:58:40;;;;;;;27.77;20.70;;;3.00;99.90;;;;;;5110644;28;20395;-65
2021/03/19 07:01:35;;;;;;;22.03;19.63;;;3.00;99.90;;;;;;5110552;28;20477;-65
2021/03/19 07:07:02;;;;;;;25.17;20.67;;;3.00;99.90;;;;;;5100206;27;20568;-65
2021/03/19 07:15:01;;;;;;;22.73;20.13;;;3.30;99.90;;;;;;5131523;27;20575;-67
2021/03/19 07:17:50;;;;;;;25.27;20.17;;;3.30;99.90;;;;;;5131974;27;20992;-67
2021/03/19 07:23:17;;;;;;;21.60;19.40;;;3.30;99.90;;;;;;5125810;27;21016;-65
2021/03/19 07:29:07;;;;;;;21.20;19.10;;;3.50;99.90;;;;;;5131463;27;20506;-66
2021/03/19 07:40:21;;;;;;;22.40;19.40;;;3.60;99.90;;;;;;5126661;27;20508;-65
2021/03/19 07:43:10;;;;;;;19.60;17.60;;;3.70;99.90;;;;;;5109869;28;20427;-65
2021/03/19 07:46:14;;;;;;;22.50;18.57;;;3.60;99.90;;;;;;5109790;28;20431;-66
2021/03/19 07:56:55;;;;;;;21.00;18.00;;;3.60;99.90;;;;;;5086771;28;20516;-66
2021/03/19 07:59:32;;;;;;;20.97;18.67;;;3.40;99.90;;;;;;5070387;28;20382;-66
2021/03/19 08:02:38;;;;;;;19.53;17.53;;;3.40;99.90;;;;;;5070512;28;20477;-67
2021/03/19 08:05:17;;;;;;;18.20;16.20;;;3.40;99.90;;;;;;5069218;28;20378;-66
2021/03/19 08:08:23;;;;;;;17.43;15.60;;;3.50;99.90;;;;;;5069088;28;20832;-65
2021/03/19 08:14:05;;;;;;;16.23;14.63;;;3.60;99.90;;;;;;5130634;27;20560;-65
2021/03/19 08:16:40;;;;;;;17.47;15.77;;;3.50;99.90;;;;;;5110193;28;20473;-65
2021/03/19 08:35:29;;;;;;;18.27;12.40;;;3.20;99.90;;;;;;5131557;27;20564;-65
2021/03/19 08:38:08;;;;;;;14.77;13.10;;;3.30;99.90;;;;;;5131392;27;20413;-65
2021/03/19 08:43:38;;;;;;;13.43;10.60;;;3.30;99.90;;;;;;5111099;27;20497;-65
2021/03/19 08:46:24;;;;;;;14.33;12.40;;;3.30;99.90;;;;;;5110986;28;20830;-65
2021/03/19 08:48:53;;;;;;;13.30;11.33;;;3.40;99.90;;;;;;5098072;28;20465;-67
2021/03/19 08:56:53;;;;;;;11.50;10.50;;;3.70;99.90;;;;;;5090531;28;21049;-65
2021/03/19 09:05:29;;;;;;;12.90;10.40;;;4.00;99.90;;;;;;5124543;27;21032;-66
2021/03/19 09:08:20;;;;;;;11.83;10.60;;;4.10;99.90;;;;;;5110941;28;20376;-66
2021/03/19 09:13:23;;;;;;;15.60;9.40;;;4.10;99.90;;;;;;5090756;28;20856;-66
2021/03/19 09:15:52;;;;;;;10.93;8.77;;;4.20;99.90;;;;;;5090540;28;20388;-66
2021/03/19 09:24:14;;;;;;;9.80;7.83;;;4.20;99.90;;;;;;5131548;27;20510;-67
2021/03/19 09:31:57;;;;;;;8.90;8.00;;;4.30;99.90;;;;;;5131487;27;20866;-66
2021/03/19 09:40:48;;;;;;;10.53;9.40;;;4.60;99.90;;;;;;5115506;27;20578;-65
2021/03/19 09:43:43;;;;;;;7.27;6.50;;;4.80;99.90;;;;;;5110119;28;20400;-65
2021/03/19 09:49:03;;;;;;;9.17;6.70;;;5.10;99.90;;;;;;5111029;27;20551;-66
2021/03/19 09:57:11;;;;;;;5.60;5.03;;;5.40;99.90;;;;;;5116576;27;20528;-65
2021/03/19 09:59:40;;;;;;;7.87;5.13;;;5.40;99.90;;;;;;5110724;28;20386;-65
2021/03/19 10:02:40;;;;;;;8.23;6.30;;;5.50;99.90;;;;;;5110921;28;20491;-65
2021/03/19 10:05:26;;;;;;;5.90;5.30;;;5.60;99.90;;;;;;5110012;28;20411;-65
2021/03/19 10:13:25;;;;;;;5.50;5.00;;;5.80;99.90;;;;;;5104041;27;20504;-65
2021/03/19 10:15:53;;;;;;;6.07;5.47;;;6.00;99.90;;;;;;5090556;28;20747;-65
2021/03/19 10:18:29;;;;;;;5.63;4.53;;;6.10;99.90;;;;;;5090444;28;20382;-65
2021/03/19 10:21:05;;;;;;;6.60;4.90;;;6.10;99.90;;;;;;5090429;28;20775;-65
2021/03/19 10:23:35;;;;;;;5.00;4.60;;;6.10;99.90;;;;;;5090338;28;20414;-65
2021/03/19 10:26:09;;;;;;;4.50;4.10;;;6.20;99.90;;;;;;5072473;28;20380;-67
2021/03/19 10:28:37;;;;;;;5.40;4.57;;;6.40;99.90;;;;;;5090498;28;20387;-65
2021/03/19 10:31:16;;;;;;;4.40;4.00;;;6.50;99.90;;;;;;5090062;28;20537;-65
2021/03/19 10:33:47;;;;;;;6.73;4.47;;;6.60;99.90;;;;;;5090064;28;20441;-66
2021/03/19 10:36:19;;;;;;;4.87;4.40;;;6.50;99.90;;;;;;5090123;28;20419;-67
2021/03/19 10:38:58;;;;;;;4.40;3.90;;;6.40;99.90;;;;;;5090142;28;20394;-65
2021/03/19 10:41:36;;;;;;;7.77;4.50;;;6.40;99.90;;;;;;5090152;28;20394;-65
2021/03/19 10:46:47;;;;;;;4.90;4.40;;;6.30;99.90;;;;;;5107769;27;20545;-65
2021/03/19 10:49:19;;;;;;;4.90;4.40;;;6.10;99.90;;;;;;5090456;28;20383;-65
2021/03/19 10:51:52;;;;;;;6.17;5.27;;;6.10;99.90;;;;;;5090460;28;20390;-65
2021/03/19 10:54:26;;;;;;;4.73;3.83;;;6.10;99.90;;;;;;5090470;28;20453;-65
2021/03/19 10:59:34;;;;;;;3.70;3.40;;;6.10;99.90;;;;;;5131382;27;20512;-66
2021/03/19 11:02:16;;;;;;;4.37;3.67;;;6.00;99.90;;;;;;5131340;28;20387;-65
2021/03/19 11:04:44;;;;;;;3.23;2.90;;;5.90;99.90;;;;;;5119638;28;20433;-67
2021/03/19 11:12:56;;;;;;;2.90;2.70;;;6.00;99.70;;;;;;5131518;27;20507;-66
2021/03/19 11:23:45;;;;;;;2.70;2.50;;;6.00;99.90;;;;;;5131352;27;20565;-66
2021/03/19 11:34:43;;;;;;;7.33;3.87;;;6.60;96.00;;;;;;5131423;27;20519;-65
2021/03/19 11:45:09;;;;;;;2.93;2.67;;;7.00;96.70;;;;;;5131399;27;20553;-66
2021/03/19 11:47:39;;;;;;;4.80;2.27;;;7.10;96.20;;;;;;5109714;28;20386;-65
2021/03/19 11:52:52;;;;;;;2.47;1.97;;;7.20;95.20;;;;;;5110840;27;20514;-65
2021/03/19 11:55:27;;;;;;;1.80;1.70;;;7.30;94.10;;;;;;5102470;28;20417;-65
2021/03/19 11:57:53;;;;;;;2.20;1.80;;;7.30;92.80;;;;;;5089392;28;20397;-65
2021/03/19 12:00:22;;;;;;;2.80;2.00;;;7.10;91.80;;;;;;5090379;28;20482;-65
2021/03/19 12:02:50;;;;;;;4.23;2.60;;;6.90;91.40;;;;;;5090515;28;20434;-67
2021/03/19 12:05:19;;;;;;;2.23;2.03;;;6.70;91.40;;;;;;5089126;28;20803;-65
2021/03/19 12:07:44;;;;;;;1.80;1.70;;;6.70;91.90;;;;;;5090875;28;20423;-65
2021/03/19 12:10:12;;;;;;;5.00;2.50;;;6.70;91.00;;;;;;5090334;28;20433;-65
2021/03/19 12:12:38;;;;;;;2.63;2.43;;;6.80;92.00;;;;;;5090605;28;20230;-65
2021/03/19 12:15:05;;;;;;;1.70;1.50;;;6.90;91.10;;;;;;5090102;28;20395;-65
2021/03/19 12:17:30;;;;;;;1.93;1.73;;;7.00;90.50;;;;;;5090443;28;20167;-65
2021/03/19 12:19:56;;;;;;;2.30;1.97;;;7.00;87.30;;;;;;5090090;28;20492;-65
2021/03/19 12:22:22;;;;;;;2.10;1.90;;;7.00;84.90;;;;;;5107872;28;20187;-65
2021/03/19 12:24:47;;;;;;;2.27;2.00;;;7.00;85.40;;;;;;5110180;28;20175;-65
2021/03/19 12:27:14;;;;;;;2.60;2.30;;;7.00;88.40;;;;;;5110370;28;20245;-65
2021/03/19 12:29:41;;;;;;;2.60;2.03;;;7.20;87.50;;;;;;5109328;28;20171;-65
2021/03/19 12:32:07;;;;;;;3.30;2.53;;;7.40;86.40;;;;;;5110530;28;20444;-65
2021/03/19 12:34:33;;;;;;;1.93;1.73;;;7.60;87.80;;;;;;5110051;28;20393;-66
2021/03/19 12:36:59;;;;;;;1.63;1.30;;;7.70;85.40;;;;;;5110380;28;20390;-65
2021/03/19 12:39:25;;;;;;;3.10;1.70;;;7.70;81.70;;;;;;5110077;28;20757;-65
2021/03/19 12:41:51;;;;;;;1.30;1.20;;;7.60;82.20;;;;;;5109997;28;20398;-65
2021/03/19 12:44:18;;;;;;;2.80;1.40;;;7.50;81.40;;;;;;5109852;28;20204;-65
2021/03/19 12:46:44;;;;;;;3.53;1.90;;;7.40;80.60;;;;;;5108936;28;20198;-65
2021/03/19 12:49:09;;;;;;;2.80;2.07;;;7.30;80.30;;;;;;5109943;28;20397;-65
2021/03/19 12:51:36;;;;;;;2.30;1.77;;;7.30;79.40;;;;;;5109623;28;20456;-65
2021/03/19 12:54:02;;;;;;;2.00;1.80;;;7.30;79.10;;;;;;5109921;28;20527;-65
2021/03/19 12:56:28;;;;;;;1.70;1.47;;;7.20;77.50;;;;;;5109746;28;20501;-65
2021/03/19 12:58:53;;;;;;;1.20;1.10;;;7.10;76.00;;;;;;5109717;28;20385;-65
2021/03/19 13:01:20;;;;;;;1.57;1.47;;;7.10;77.00;;;;;;5109641;28;20403;-65
2021/03/19 13:03:47;;;;;;;2.73;1.40;;;7.00;72.80;;;;;;5097453;28;20179;-65
2021/03/19 13:06:14;;;;;;;1.60;1.50;;;7.10;77.30;;;;;;5095979;28;20393;-65
2021/03/19 13:08:40;;;;;;;2.03;1.70;;;7.10;77.00;;;;;;5095879;28;20388;-65
2021/03/19 13:11:07;;;;;;;2.10;1.50;;;7.10;75.60;;;;;;5095929;28;20981;-65
2021/03/19 13:13:33;;;;;;;1.70;1.60;;;7.20;77.30;;;;;;5096111;28;20168;-65
2021/03/19 13:15:58;;;;;;;2.13;1.87;;;7.20;76.80;;;;;;5096237;28;20390;-65
2021/03/19 13:18:24;;;;;;;2.40;2.03;;;7.30;75.10;;;;;;5095646;28;20158;-65
2021/03/19 13:20:49;;;;;;;2.43;1.90;;;7.30;74.60;;;;;;5087402;28;20179;-65
2021/03/19 13:23:15;;;;;;;1.90;1.60;;;7.30;74.40;;;;;;5095848;28;20521;-65
2021/03/19 13:25:42;;;;;;;2.07;1.83;;;7.40;76.60;;;;;;5095868;28;20169;-65
2021/03/19 13:28:09;;;;;;;3.00;1.90;;;7.60;76.00;;;;;;5077984;28;20389;-65
2021/03/19 13:30:36;;;;;;;1.60;1.30;;;7.60;75.70;;;;;;5095580;28;20405;-65
2021/03/19 13:33:04;;;;;;;2.20;1.60;;;7.80;74.80;;;;;;5095421;28;20402;-65
2021/03/19 13:38:11;;;;;;;7.13;1.60;;;7.90;75.00;;;;;;5055463;28;20511;-65
2021/03/19 13:40:39;;;;;;;3.10;1.90;;;7.80;75.00;;;;;;5050394;28;20399;-65
2021/03/19 13:43:06;;;;;;;2.27;1.40;;;7.80;74.50;;;;;;5050487;28;20387;-65
2021/03/19 13:45:32;;;;;;;1.47;1.37;;;7.80;75.70;;;;;;5050195;28;20455;-65
2021/03/19 13:47:58;;;;;;;2.93;1.70;;;7.80;74.60;;;;;;5050167;28;20384;-65
2021/03/19 13:50:24;;;;;;;4.03;2.47;;;7.80;73.10;;;;;;5050240;28;20154;-65
2021/03/19 13:52:50;;;;;;;1.67;1.57;;;7.80;72.60;;;;;;5050165;28;20466;-65
2021/03/19 13:55:16;;;;;;;9.70;3.50;;;7.80;72.10;;;;;;5050202;28;20552;-65
2021/03/19 13:57:45;;;;;;;3.03;2.73;;;7.90;71.70;;;;;;5050297;28;20660;-65
2021/03/19 14:00:13;;;;;;;3.40;2.30;;;7.80;70.40;;;;;;5050058;28;20396;-65
2021/03/19 14:02:38;;;;;;;3.73;2.27;;;7.80;70.60;;;;;;5049951;28;20397;-65
2021/03/19 14:05:04;;;;;;;4.53;2.53;;;7.80;70.80;;;;;;5049953;28;20546;-65
2021/03/19 14:07:30;;;;;;;2.47;1.80;;;7.90;71.10;;;;;;5049768;28;20522;-65
2021/03/19 14:09:56;;;;;;;2.97;1.80;;;7.90;68.80;;;;;;5049872;28;20397;-65
2021/03/19 14:12:21;;;;;;;2.53;1.70;;;7.80;69.10;;;;;;5049894;28;20200;-65
2021/03/19 14:14:47;;;;;;;1.87;1.67;;;7.70;70.60;;;;;;5048476;28;20240;-65
2021/03/19 14:17:12;;;;;;;2.10;1.80;;;7.70;70.60;;;;;;5048559;28;20214;-65
2021/03/19 14:19:38;;;;;;;3.00;1.80;;;7.60;71.30;;;;;;5049612;28;20169;-65
2021/03/19 14:22:03;;;;;;;1.60;1.50;;;7.60;72.10;;;;;;5049567;28;20213;-65
2021/03/19 14:24:29;;;;;;;1.40;1.30;;;7.50;71.90;;;;;;5048292;28;20623;-65
2021/03/19 14:26:54;;;;;;;1.97;1.77;;;7.50;72.40;;;;;;5049615;28;20167;-65
2021/03/19 14:29:20;;;;;;;2.00;1.80;;;7.40;71.30;;;;;;5049300;28;20174;-65
2021/03/19 14:31:46;;;;;;;1.30;1.20;;;7.30;69.80;;;;;;5049731;28;20162;-66
2021/03/19 14:34:11;;;;;;;2.03;1.70;;;7.30;70.40;;;;;;5049318;28;20170;-65
2021/03/19 14:36:37;;;;;;;2.00;1.50;;;7.40;69.70;;;;;;5049108;28;20608;-65
2021/03/19 14:39:03;;;;;;;1.60;1.40;;;7.50;70.60;;;;;;5049584;28;20158;-65
2021/03/19 14:41:30;;;;;;;2.03;1.77;;;7.70;70.50;;;;;;5049332;28;20197;-65
2021/03/19 14:43:56;;;;;;;1.83;1.30;;;7.80;69.10;;;;;;5049280;28;20394;-65
2021/03/19 14:46:26;;;;;;;2.10;1.27;;;7.80;66.70;;;;;;5047934;28;20451;-65
2021/03/19 14:48:51;;;;;;;1.83;1.57;;;7.90;65.80;;;;;;5038088;28;20156;-65
2021/03/19 14:51:17;;;;;;;1.97;1.77;;;7.90;65.70;;;;;;5035751;28;20393;-65
2021/03/19 14:53:46;;;;;;;2.10;1.60;;;7.80;65.40;;;;;;5034695;28;20308;-65
2021/03/19 14:56:13;;;;;;;3.17;1.70;;;7.70;66.10;;;;;;5035829;28;20473;-65
2021/03/19 14:58:39;;;;;;;1.60;1.50;;;7.70;65.80;;;;;;5034620;28;20397;-65
2021/03/19 15:01:06;;;;;;;1.50;1.37;;;7.60;65.70;;;;;;5035592;28;20468;-65
2021/03/19 15:03:31;;;;;;;2.53;2.33;;;7.60;65.70;;;;;;5034244;28;20413;-65
2021/03/19 15:05:58;;;;;;;3.30;2.53;;;7.60;64.90;;;;;;5035542;28;20747;-65
2021/03/19 15:08:25;;;;;;;1.73;1.63;;;7.60;65.00;;;;;;5035512;28;20511;-65
2021/03/19 15:10:53;;;;;;;1.10;1.00;;;7.60;63.80;;;;;;5034185;28;20421;-65
2021/03/19 15:13:20;;;;;;;1.67;1.33;;;7.60;65.00;;;;;;5034218;28;20797;-65
2021/03/19 15:15:45;;;;;;;2.50;1.50;;;7.60;64.80;;;;;;5035180;28;20407;-65
2021/03/19 15:18:14;;;;;;;2.20;1.50;;;7.60;65.60;;;;;;5035294;28;20404;-65
2021/03/19 15:20:46;;;;;;;3.50;2.40;;;7.60;66.90;;;;;;5033636;28;20239;-65
2021/03/19 15:23:23;;;;;;;1.80;1.50;;;7.60;65.70;;;;;;5034551;28;20400;-65
2021/03/19 15:25:49;;;;;;;4.00;3.10;;;7.70;65.40;;;;;;5034417;28;20400;-65
2021/03/19 15:28:17;;;;;;;2.97;2.27;;;7.70;66.80;;;;;;5035284;28;20451;-65
2021/03/19 15:30:43;;;;;;;2.10;1.83;;;7.70;67.00;;;;;;5033744;28;20425;-65
2021/03/19 15:33:09;;;;;;;1.60;1.50;;;7.70;67.80;;;;;;5033831;28;20871;-65
2021/03/19 15:35:35;;;;;;;5.60;3.00;;;7.70;67.80;;;;;;5035034;28;20435;-65
2021/03/19 15:38:04;;;;;;;2.40;1.77;;;7.70;68.50;;;;;;5034897;28;20198;-65
2021/03/19 15:40:36;;;;;;;3.73;3.13;;;7.70;69.30;;;;;;5033667;28;20478;-65
2021/03/19 15:43:03;;;;;;;3.00;1.83;;;7.70;68.20;;;;;;5034752;28;20402;-65
2021/03/19 15:45:28;;;;;;;1.83;1.53;;;7.80;68.00;;;;;;5034649;28;20560;-66
2021/03/19 15:47:54;;;;;;;2.10;1.90;;;7.80;66.70;;;;;;5034742;28;20877;-65